Annandale, NY

8:04 PM EDT on October 21, 2014 (GMT -0400)
Red Hook | Change Station
CLOSE
Current Station
Personal Weather Station
Location: Red Hook, NY
Elevation: 256 ft
Nearby Weather Stations

Elev 256 ft 42.01 °N, 73.85 °W | Updated 45 seconds ago

Mostly Cloudy
Mostly Cloudy
52.0 °F
Feels Like 52.0 °F
N
2.0
Wind Variable Wind from NNE
Gusts 9.0 mph

Today
High -- | Low -- °F
--% Chance of Precip.
Yesterday
High -- | Low -- °F
Precip. -- in
7:14 AM 6:04 PM
Waning Crescent, 4% visible
Pressure 29.90 in
Visibility 9.0 miles
Clouds Few 600 ft
Overcast 7000 ft
Dew Point 48 °F
Humidity 86%
Rainfall 0.40 in
Snow Depth Not available.
UV 0 out of 12
Pollen .10 out of 12
PM2.5 Good
Flu Activity Sporadic
METAR KPOU 212353Z 00000KT 9SM FEW006 OVC070 11/10 A2991 RMK AO2 SLP125 T01110100 10139 20111 53013

More Conditions Fewer Conditions

Pressure 29.90 in
Visibility 9.0 miles
Clouds Few 600 ft
Overcast 7000 ft
Dew Point 48 °F
Humidity 86%
Rainfall 0.40 in
Snow Depth Not available.
UV 0 out of 12
Pollen .10 out of 12
PM2.5 Good
Flu Activity Sporadic
METAR KPOU 212353Z 00000KT 9SM FEW006 OVC070 11/10 A2991 RMK AO2 SLP125 T01110100 10139 20111 53013

More Conditions Fewer Conditions

10-Day Weather Forecast

Almanac

Astronomy

Oct. 21, 2014 Rise Set
Actual Time 7:14 AM EDT 6:04 PM EDT
Civil Twilight 6:46 AM EDT 6:33 PM EDT
Nautical Twilight 6:14 AM EDT 7:05 PM EDT
Astronomical Twilight 5:41 AM EDT 7:37 PM EDT
Moon 4:54 AM EDT (10/21) 4:59 PM EDT (10/21)
Length of Visible Light 11h 46m
Length of Day
10h 49m
Tomorrow will be 2m 40s shorter.
Waning Crescent, 4% of the Moon is Illuminated
Today
Waning Crescent
Oct 23
New
Oct 30
First Quarter
Nov 6
Full
Nov 14
Last Quarter

Today's Extremes

State Highs State Lows

Community

WunderPhotos

Upload Photos

1,763,824 photos uploaded!

Nearby

Air Quality

  Air Quality AQ Index Pollutant
Yesterday Good
OZONE
Yesterday Good
PM2.5
Current Good
PM2.5
Tuesday Good
PM2.5
Wednesday Good
PM2.5

Snow Depth

Station Depth Elevation
No new snow has been reported.

Earthquake Activity

City Distance Mag. Time & Date
No recent earthquake activity has been reported nearby.
Minimum magnitude displayed is 2.5.

Coastal Water Temperatures

Place Temperature
No Stations Reporting

Nearby Weather Stations